createdAt,value
2017-12-14T22:04:35.051Z,8.00
2017-12-14T22:05:35.069Z,10.80
2017-12-14T22:06:35.083Z,11.00
2017-12-14T22:07:35.097Z,14.40
2017-12-14T22:08:35.122Z,11.30
2017-12-14T22:09:35.141Z,14.30
2017-12-14T22:10:35.154Z,14.80
2017-12-14T22:11:35.179Z,11.90
2017-12-14T22:12:35.191Z,12.20
2017-12-14T22:13:35.216Z,14.10
2017-12-14T22:14:35.231Z,14.30
2017-12-14T22:15:35.253Z,14.40
2017-12-14T22:16:35.266Z,13.20
2017-12-14T22:17:35.292Z,15.40
2017-12-14T22:18:35.306Z,14.30
2017-12-14T22:19:35.331Z,13.30
2017-12-14T22:20:35.345Z,16.60
2017-12-14T22:21:35.364Z,15.60
2017-12-14T22:22:35.387Z,15.00
2017-12-14T22:23:35.409Z,16.60
2017-12-14T22:24:35.421Z,15.30
2017-12-14T22:25:35.446Z,18.90
2017-12-14T22:26:35.465Z,16.20
2017-12-14T22:27:35.478Z,20.20
2017-12-14T22:28:35.503Z,15.00
2017-12-14T22:29:35.523Z,16.80
2017-12-14T22:30:35.536Z,18.90
2017-12-14T22:31:35.556Z,18.70
2017-12-14T22:32:36.260Z,21.80
2017-12-14T22:33:36.005Z,17.80
2017-12-14T22:34:35.904Z,20.50
2017-12-14T22:35:35.634Z,18.00
2017-12-14T22:36:35.656Z,18.70
2017-12-14T22:37:35.670Z,20.30
2017-12-14T22:38:35.693Z,19.10
2017-12-14T22:39:35.707Z,17.10
2017-12-14T22:40:35.732Z,20.90
2017-12-14T22:41:35.745Z,19.90
2017-12-14T22:42:35.768Z,18.10
2017-12-14T22:43:35.783Z,20.70
2017-12-14T22:44:35.808Z,19.30
2017-12-14T22:45:35.835Z,23.70
2017-12-14T22:46:35.843Z,19.90
2017-12-14T22:47:35.857Z,20.30
2017-12-14T22:48:36.512Z,21.70
2017-12-14T22:49:35.900Z,18.40
2017-12-14T22:50:35.911Z,18.80
2017-12-14T22:51:35.936Z,19.90
2017-12-14T22:52:35.953Z,18.70
2017-12-14T22:53:35.974Z,19.30
2017-12-14T22:54:35.990Z,19.80
2017-12-14T22:55:36.009Z,22.20
2017-12-14T22:56:36.023Z,19.00
2017-12-14T22:57:36.054Z,23.70
2017-12-14T22:58:36.062Z,19.40
2017-12-14T22:59:36.079Z,17.40
2017-12-14T23:00:36.106Z,19.30
2017-12-14T23:01:36.117Z,24.20
2017-12-14T23:02:36.140Z,20.30
2017-12-14T23:03:36.154Z,19.80
2017-12-14T23:04:36.178Z,19.70
2017-12-14T23:05:36.192Z,18.70
2017-12-14T23:06:36.218Z,19.00
2017-12-14T23:07:36.233Z,18.40
2017-12-14T23:08:36.246Z,21.90
2017-12-14T23:09:36.270Z,18.60
2017-12-14T23:10:36.282Z,18.70
2017-12-14T23:11:36.307Z,20.90
2017-12-14T23:12:36.319Z,20.90
2017-12-14T23:13:36.344Z,20.50
2017-12-14T23:14:36.355Z,21.70
2017-12-14T23:15:36.381Z,21.10
2017-12-14T23:16:36.393Z,20.20
2017-12-14T23:17:36.417Z,20.60
2017-12-14T23:18:36.429Z,19.40
2017-12-14T23:19:36.453Z,22.70
2017-12-14T23:20:42.752Z,16.30
2017-12-14T23:21:42.770Z,20.40
2017-12-14T23:22:42.782Z,19.40
2017-12-14T23:23:42.801Z,20.90
2017-12-14T23:24:42.827Z,22.60
2017-12-14T23:25:42.844Z,20.80
2017-12-14T23:26:42.857Z,21.00
2017-12-14T23:27:42.879Z,22.80
2017-12-14T23:28:42.893Z,20.70
2017-12-14T23:29:42.917Z,20.20
2017-12-14T23:30:42.929Z,20.80
2017-12-14T23:31:42.951Z,20.10
2017-12-14T23:32:42.966Z,20.10
2017-12-14T23:33:42.989Z,18.80
2017-12-14T23:34:43.004Z,20.70
2017-12-14T23:35:43.025Z,21.70
2017-12-14T23:36:43.038Z,21.20
2017-12-14T23:37:43.056Z,19.90
2017-12-14T23:38:43.081Z,20.40
2017-12-14T23:39:43.098Z,18.60
2017-12-14T23:40:43.111Z,20.10
2017-12-14T23:41:43.129Z,23.60
2017-12-14T23:42:43.154Z,19.50
2017-12-14T23:43:43.166Z,21.60
2017-12-14T23:44:43.189Z,22.00
2017-12-14T23:45:43.208Z,19.30
2017-12-14T23:46:43.262Z,19.90
2017-12-14T23:47:43.238Z,20.00
2017-12-14T23:48:43.264Z,20.50
2017-12-14T23:49:43.283Z,18.70
2017-12-14T23:50:43.293Z,20.00
2017-12-14T23:51:43.341Z,22.10
2017-12-14T23:52:43.335Z,20.50
2017-12-14T23:53:43.347Z,21.30
2017-12-14T23:54:43.373Z,20.00
2017-12-14T23:55:43.383Z,20.50
2017-12-14T23:56:43.407Z,19.40
2017-12-14T23:57:43.420Z,19.50
2017-12-14T23:58:43.444Z,19.40
2017-12-14T23:59:43.455Z,20.40
